createdAt,value
2019-04-14T00:00:32.050Z,8.44
2019-04-14T00:00:59.425Z,8.44
2019-04-14T00:01:28.508Z,8.44
2019-04-14T00:01:58.772Z,8.44
2019-04-14T00:02:29.329Z,8.44
2019-04-14T00:02:59.773Z,8.44
2019-04-14T00:03:28.658Z,8.44
2019-04-14T00:03:58.702Z,8.44
2019-04-14T00:04:28.992Z,8.44
2019-04-14T00:04:59.401Z,8.44
2019-04-14T00:05:30.943Z,8.44
2019-04-14T00:05:58.500Z,8.44
2019-04-14T00:06:29.227Z,8.44
2019-04-14T00:06:59.124Z,8.44
2019-04-14T00:07:29.764Z,8.44
2019-04-14T00:07:58.515Z,8.44
2019-04-14T00:08:28.579Z,8.44
2019-04-14T00:08:58.708Z,8.44
2019-04-14T00:09:29.388Z,8.44
2019-04-14T00:10:00.661Z,8.44
2019-04-14T00:10:28.967Z,8.44
2019-04-14T00:10:59.392Z,8.44
2019-04-14T00:11:28.690Z,8.44
2019-04-14T00:11:59.155Z,8.44
2019-04-14T00:12:29.474Z,8.44
2019-04-14T00:12:59.958Z,8.38
2019-04-14T00:13:28.693Z,8.38
2019-04-14T00:14:01.242Z,8.38
2019-04-14T00:14:29.349Z,8.38
2019-04-14T00:14:59.717Z,8.38
2019-04-14T00:15:35.285Z,8.38
2019-04-14T00:15:58.926Z,8.38
2019-04-14T00:16:29.199Z,8.38
2019-04-14T00:16:59.623Z,8.38
2019-04-14T00:17:32.664Z,8.38
2019-04-14T00:17:59.054Z,8.38
2019-04-14T00:18:29.403Z,8.38
2019-04-14T00:18:59.830Z,8.38
2019-04-14T00:19:30.285Z,8.38
2019-04-14T00:19:59.076Z,8.38
2019-04-14T00:20:31.499Z,8.38
2019-04-14T00:20:59.838Z,8.38
2019-04-14T00:21:28.970Z,8.38
2019-04-14T00:21:59.004Z,8.38
2019-04-14T00:22:30.603Z,8.38
2019-04-14T00:22:59.763Z,8.31
2019-04-14T00:23:30.409Z,8.38
2019-04-14T00:23:58.923Z,8.38
2019-04-14T00:24:29.131Z,8.38
2019-04-14T00:24:59.702Z,8.38
2019-04-14T00:25:30.170Z,8.38
2019-04-14T00:25:59.173Z,8.38
2019-04-14T00:26:29.476Z,8.38
2019-04-14T00:27:02.010Z,8.38
2019-04-14T00:27:30.632Z,8.38
2019-04-14T00:27:59.154Z,8.38
2019-04-14T00:28:29.280Z,8.38
2019-04-14T00:29:00.031Z,8.31
2019-04-14T00:29:29.261Z,8.31
2019-04-14T00:29:59.150Z,8.38
2019-04-14T00:30:29.499Z,8.31
2019-04-14T00:31:02.318Z,8.31
2019-04-14T00:31:30.365Z,8.31
2019-04-14T00:31:59.342Z,8.31
2019-04-14T00:32:29.253Z,8.31
2019-04-14T00:32:59.549Z,8.31
2019-04-14T00:33:30.159Z,8.31
2019-04-14T00:34:00.413Z,8.31
2019-04-14T00:34:29.341Z,8.31
2019-04-14T00:34:59.421Z,8.31
2019-04-14T00:35:29.882Z,8.31
2019-04-14T00:36:00.206Z,8.31
2019-04-14T00:36:30.436Z,8.31
2019-04-14T00:37:01.263Z,8.31
2019-04-14T00:37:29.488Z,8.31
2019-04-14T00:37:59.738Z,8.31
2019-04-14T00:38:30.203Z,8.31
2019-04-14T00:38:59.443Z,8.31
2019-04-14T00:39:29.527Z,8.31
2019-04-14T00:39:59.770Z,8.31
2019-04-14T00:40:31.496Z,8.31
2019-04-14T00:41:00.628Z,8.31
2019-04-14T00:41:39.337Z,8.31
2019-04-14T00:42:03.468Z,8.31
2019-04-14T00:42:29.868Z,8.31
2019-04-14T00:43:00.564Z,8.31
2019-04-14T00:43:29.432Z,8.31
2019-04-14T00:43:59.536Z,8.31
2019-04-14T00:44:32.358Z,8.31
2019-04-14T00:45:00.444Z,8.31
2019-04-14T00:45:36.903Z,8.31
2019-04-14T00:46:00.949Z,8.31
2019-04-14T00:46:31.292Z,8.31
2019-04-14T00:47:00.579Z,8.31
2019-04-14T00:47:29.480Z,8.31
2019-04-14T00:48:06.317Z,8.31
2019-04-14T00:48:29.865Z,8.31
2019-04-14T00:49:00.587Z,8.31
2019-04-14T00:49:29.674Z,8.31
2019-04-14T00:50:01.299Z,8.31
2019-04-14T00:50:29.868Z,8.31
2019-04-14T00:51:00.558Z,8.31
2019-04-14T00:51:30.937Z,8.31
2019-04-14T00:51:59.672Z,8.31
2019-04-14T00:52:29.860Z,8.31
2019-04-14T00:53:01.191Z,8.31
2019-04-14T00:53:29.828Z,8.31
2019-04-14T00:54:01.954Z,8.31
2019-04-14T00:54:30.405Z,8.31
2019-04-14T00:55:00.924Z,8.31
2019-04-14T00:55:29.764Z,8.31
2019-04-14T00:55:59.973Z,8.31
2019-04-14T00:56:30.115Z,8.31
2019-04-14T00:57:00.870Z,8.31
2019-04-14T00:57:31.699Z,8.31
2019-04-14T00:58:01.600Z,8.31
2019-04-14T00:58:30.051Z,8.31
2019-04-14T00:59:00.569Z,8.31
2019-04-14T00:59:31.121Z,8.31
2019-04-14T01:00:00.086Z,8.31
2019-04-14T01:00:29.986Z,8.31
2019-04-14T01:01:00.505Z,8.31
2019-04-14T01:01:32.982Z,8.31
2019-04-14T01:02:01.303Z,8.31
2019-04-14T01:02:30.158Z,8.31
2019-04-14T01:03:00.371Z,8.31
2019-04-14T01:03:30.921Z,8.31
2019-04-14T01:04:01.164Z,8.31
2019-04-14T01:04:32.276Z,8.25
2019-04-14T01:05:02.510Z,8.25
2019-04-14T01:05:32.593Z,8.25
2019-04-14T01:06:01.116Z,8.25
2019-04-14T01:06:31.256Z,8.25
2019-04-14T01:07:00.177Z,8.25
2019-04-14T01:07:30.495Z,8.25
2019-04-14T01:08:00.944Z,8.25
2019-04-14T01:08:31.312Z,8.25
2019-04-14T01:09:04.239Z,8.25
2019-04-14T01:09:30.534Z,8.31
2019-04-14T01:10:00.185Z,8.25
2019-04-14T01:10:30.261Z,8.31
2019-04-14T01:11:00.986Z,8.31
2019-04-14T01:11:31.324Z,8.31
2019-04-14T01:12:00.268Z,8.31
2019-04-14T01:12:30.424Z,8.31
2019-04-14T01:13:00.577Z,8.31
2019-04-14T01:13:31.082Z,8.31
2019-04-14T01:14:01.481Z,8.31
2019-04-14T01:14:31.992Z,8.31
2019-04-14T01:15:01.169Z,8.31
2019-04-14T01:15:31.145Z,8.31
2019-04-14T01:16:06.890Z,8.31
2019-04-14T01:16:30.495Z,8.31
2019-04-14T01:17:00.613Z,8.38
2019-04-14T01:17:30.892Z,8.31
2019-04-14T01:18:01.379Z,8.31
2019-04-14T01:18:31.923Z,8.25
2019-04-14T01:19:00.539Z,8.25
2019-04-14T01:19:30.930Z,8.25
2019-04-14T01:20:01.419Z,8.25
2019-04-14T01:20:31.723Z,8.25
2019-04-14T01:21:00.565Z,8.25
2019-04-14T01:21:30.757Z,8.25
2019-04-14T01:22:03.289Z,8.25
2019-04-14T01:22:33.532Z,8.25
2019-04-14T01:23:01.945Z,8.25
2019-04-14T01:23:30.778Z,8.25
2019-04-14T01:24:01.028Z,8.25
2019-04-14T01:24:31.533Z,8.31
2019-04-14T01:25:02.204Z,8.31
2019-04-14T01:25:30.753Z,8.31
2019-04-14T01:26:04.730Z,8.31
2019-04-14T01:26:33.123Z,8.31
2019-04-14T01:27:01.687Z,8.31
2019-04-14T01:27:31.774Z,8.31
2019-04-14T01:28:00.809Z,8.31
2019-04-14T01:28:30.966Z,8.31
2019-04-14T01:29:01.404Z,8.31
2019-04-14T01:29:31.846Z,8.31
2019-04-14T01:30:02.552Z,8.31
2019-04-14T01:30:31.113Z,8.31
2019-04-14T01:31:01.478Z,8.31
2019-04-14T01:31:31.666Z,8.31
2019-04-14T01:32:02.293Z,8.31
2019-04-14T01:32:30.948Z,8.25
2019-04-14T01:33:01.188Z,8.25
2019-04-14T01:33:31.570Z,8.25
2019-04-14T01:34:01.943Z,8.19
2019-04-14T01:34:30.969Z,8.19
2019-04-14T01:35:01.039Z,8.25
2019-04-14T01:35:31.462Z,8.25
2019-04-14T01:36:01.708Z,8.25
2019-04-14T01:36:31.992Z,8.25
2019-04-14T01:37:01.420Z,8.25
2019-04-14T01:37:31.202Z,8.25
2019-04-14T01:38:01.609Z,8.25
2019-04-14T01:38:31.911Z,8.25
2019-04-14T01:39:02.438Z,8.25
2019-04-14T01:39:32.860Z,8.25
2019-04-14T01:40:01.153Z,8.25
2019-04-14T01:40:31.428Z,8.25
2019-04-14T01:41:02.108Z,8.19
2019-04-14T01:41:31.051Z,8.25
2019-04-14T01:42:01.190Z,8.25
2019-04-14T01:42:31.148Z,8.25
2019-04-14T01:43:03.798Z,8.19
2019-04-14T01:43:32.097Z,8.19
2019-04-14T01:44:02.447Z,8.19
2019-04-14T01:44:31.292Z,8.19
2019-04-14T01:45:01.565Z,8.13
2019-04-14T01:45:31.716Z,8.13
2019-04-14T01:46:09.487Z,8.13
2019-04-14T01:46:32.658Z,8.13
2019-04-14T01:47:01.488Z,8.13
2019-04-14T01:47:31.479Z,8.06
2019-04-14T01:48:04.309Z,8.06
2019-04-14T01:48:32.431Z,8.06
2019-04-14T01:49:02.676Z,8.06
2019-04-14T01:49:31.308Z,8.06
2019-04-14T01:50:01.890Z,8.06
2019-04-14T01:50:32.275Z,8.06
2019-04-14T01:51:02.671Z,8.06
2019-04-14T01:51:31.566Z,8.06
2019-04-14T01:52:01.849Z,8.06
2019-04-14T01:52:32.681Z,8.06
2019-04-14T01:53:03.189Z,8.06
2019-04-14T01:53:31.528Z,8.06
2019-04-14T01:54:01.809Z,8.06
2019-04-14T01:54:32.321Z,8.06
2019-04-14T01:55:02.847Z,8.06
2019-04-14T01:55:33.036Z,8.06
2019-04-14T01:56:01.818Z,8.06
2019-04-14T01:56:34.091Z,8
2019-04-14T01:57:02.462Z,8
2019-04-14T01:57:32.796Z,8.06
2019-04-14T01:58:01.739Z,8
2019-04-14T01:58:31.854Z,8
2019-04-14T01:59:04.362Z,8.06
2019-04-14T01:59:32.633Z,8.06
2019-04-14T02:00:05.554Z,8
2019-04-14T02:00:34.430Z,8
2019-04-14T02:01:02.129Z,8.06
2019-04-14T02:01:32.446Z,8.06
2019-04-14T02:02:02.913Z,8.06
2019-04-14T02:02:32.074Z,8.06
2019-04-14T02:03:02.082Z,8.06
2019-04-14T02:03:32.272Z,8.06
2019-04-14T02:04:02.915Z,8.06
2019-04-14T02:04:32.009Z,8.06
2019-04-14T02:05:02.167Z,8.06
2019-04-14T02:05:32.151Z,8.06
2019-04-14T02:06:02.621Z,8.06
2019-04-14T02:06:35.610Z,8.13
2019-04-14T02:07:02.294Z,8.06
2019-04-14T02:07:31.998Z,8.13
2019-04-14T02:08:02.370Z,8.13
2019-04-14T02:08:32.885Z,8.13
2019-04-14T02:09:03.261Z,8.13
2019-04-14T02:09:32.090Z,8.13
2019-04-14T02:10:04.231Z,8.13
2019-04-14T02:10:32.625Z,8.13
2019-04-14T02:11:02.976Z,8.13
2019-04-14T02:11:33.343Z,8.19
2019-04-14T02:12:02.196Z,8.19
2019-04-14T02:12:32.335Z,8.19
2019-04-14T02:13:02.784Z,8.19
2019-04-14T02:13:33.294Z,8.19
2019-04-14T02:14:03.651Z,8.19
2019-04-14T02:14:32.303Z,8.19
2019-04-14T02:15:02.826Z,8.25
2019-04-14T02:15:33.020Z,8.25
2019-04-14T02:16:14.748Z,8.19
2019-04-14T02:16:39.320Z,8.19
2019-04-14T02:17:04.282Z,8.19
2019-04-14T02:17:35.018Z,8.19
2019-04-14T02:18:03.212Z,8.19
2019-04-14T02:18:32.356Z,8.13
2019-04-14T02:19:02.502Z,8.13
2019-04-14T02:19:32.737Z,8.13
2019-04-14T02:20:03.317Z,8.19
2019-04-14T02:20:33.857Z,8.19
2019-04-14T02:21:06.558Z,8.19
2019-04-14T02:21:32.435Z,8.19
2019-04-14T02:22:02.801Z,8.19
2019-04-14T02:22:33.445Z,8.13
2019-04-14T02:23:03.983Z,8.13
2019-04-14T02:23:32.513Z,8.13
2019-04-14T02:24:02.766Z,8.06
2019-04-14T02:24:33.057Z,8.13
2019-04-14T02:25:03.563Z,8.13
2019-04-14T02:25:32.340Z,8.13
2019-04-14T02:26:02.533Z,8.13
2019-04-14T02:26:32.944Z,8.13
2019-04-14T02:27:03.528Z,8.19
2019-04-14T02:27:32.473Z,8.19
2019-04-14T02:28:02.856Z,8.19
2019-04-14T02:28:33.123Z,8.19
2019-04-14T02:29:03.585Z,8.25
2019-04-14T02:29:32.417Z,8.25
2019-04-14T02:30:04.507Z,8.25
2019-04-14T02:30:41.337Z,8.25
2019-04-14T02:31:16.779Z,8.25
2019-04-14T02:31:59.443Z,8.25
2019-04-14T02:32:32.276Z,8.25
2019-04-14T02:32:56.652Z,8.31
2019-04-14T02:33:31.700Z,8.25
2019-04-14T02:34:33.405Z,8.25
2019-04-14T02:35:01.573Z,8.25
2019-04-14T02:35:36.552Z,8.25
2019-04-14T02:36:05.408Z,8.25
2019-04-14T02:36:29.827Z,8.25
2019-04-14T02:37:04.289Z,8.25
2019-04-14T02:37:25.827Z,8.25
2019-04-14T02:38:01.693Z,8.19
2019-04-14T02:38:40.420Z,8.19
2019-04-14T02:39:05.811Z,8.25
2019-04-14T02:39:29.082Z,8.25
2019-04-14T02:40:36.105Z,8.25
2019-04-14T02:41:35.544Z,8.25
2019-04-14T02:42:53.833Z,8.25
2019-04-14T02:44:03.950Z,8.25
2019-04-14T02:44:30.038Z,8.25
2019-04-14T02:44:59.619Z,8.25
2019-04-14T02:45:34.638Z,8.25
2019-04-14T02:45:56.847Z,8.25
2019-04-14T02:46:30.827Z,8.25
2019-04-14T02:47:03.183Z,8.25
2019-04-14T02:47:53.267Z,8.25
2019-04-14T02:48:02.128Z,8.25
2019-04-14T02:48:55.132Z,8.25
2019-04-14T02:48:55.138Z,8.25
2019-04-14T02:49:34.684Z,8.19
2019-04-14T02:49:55.885Z,8.19
2019-04-14T02:50:22.764Z,8.19
2019-04-14T02:51:04.000Z,8.19
2019-04-14T02:51:25.364Z,8.19
2019-04-14T02:51:55.849Z,8.19
2019-04-14T02:52:27.787Z,8.13
2019-04-14T02:53:00.287Z,8.13
2019-04-14T02:53:32.327Z,8.13
2019-04-14T02:54:04.550Z,8.13
2019-04-14T02:54:35.867Z,8.13
2019-04-14T02:55:20.825Z,8.13
2019-04-14T02:56:07.365Z,8.13
2019-04-14T02:56:27.649Z,8.06
2019-04-14T02:57:01.017Z,8.06
2019-04-14T02:57:29.734Z,8.06
2019-04-14T02:58:00.924Z,8.06
2019-04-14T02:58:36.003Z,8.06
2019-04-14T02:58:58.144Z,8.06
2019-04-14T02:59:26.441Z,8.06
2019-04-14T02:59:58.291Z,8.06
2019-04-14T03:00:31.008Z,8.06
2019-04-14T03:00:57.967Z,8.06
2019-04-14T03:01:29.394Z,8.06
2019-04-14T03:02:13.905Z,8.06
2019-04-14T03:02:29.027Z,8.06
2019-04-14T03:02:56.009Z,8
2019-04-14T03:03:30.043Z,8
2019-04-14T03:03:55.763Z,8.06
2019-04-14T03:04:25.260Z,8.06
2019-04-14T03:05:25.944Z,8.06
2019-04-14T03:05:57.402Z,8.06
2019-04-14T03:06:25.109Z,8.06
2019-04-14T03:06:53.918Z,8.06
2019-04-14T03:07:27.939Z,8.06
2019-04-14T03:07:59.548Z,8.06
2019-04-14T03:08:31.079Z,8.06
2019-04-14T03:09:07.489Z,8.06
2019-04-14T03:09:36.141Z,8.06
2019-04-14T03:10:31.349Z,8.06
2019-04-14T03:10:53.353Z,8.06
2019-04-14T03:11:30.649Z,8.06
2019-04-14T03:11:51.002Z,8
2019-04-14T03:13:05.347Z,8.06
2019-04-14T03:13:28.212Z,8.06
2019-04-14T03:13:50.950Z,8.06
2019-04-14T03:14:30.258Z,8.06
2019-04-14T03:15:00.605Z,8.06
2019-04-14T03:15:31.592Z,8.06
2019-04-14T03:16:01.402Z,8.06
2019-04-14T03:16:37.272Z,8.06
2019-04-14T03:17:13.451Z,8.06
2019-04-14T03:17:28.882Z,8.06
2019-04-14T03:18:15.725Z,8.06
2019-04-14T03:18:57.448Z,8
2019-04-14T03:19:34.666Z,8
2019-04-14T03:20:04.656Z,8
2019-04-14T03:20:31.590Z,8
2019-04-14T03:21:33.712Z,8.06
2019-04-14T03:22:02.598Z,8
2019-04-14T03:22:36.799Z,8
2019-04-14T03:22:55.130Z,8
2019-04-14T03:23:32.719Z,8
2019-04-14T03:24:26.770Z,8
2019-04-14T03:24:46.418Z,8
2019-04-14T03:25:22.189Z,8
2019-04-14T03:25:56.739Z,7.94
2019-04-14T03:26:24.745Z,7.94
2019-04-14T03:27:30.252Z,7.94
2019-04-14T03:27:58.214Z,7.94
2019-04-14T03:28:31.548Z,7.94
2019-04-14T03:28:50.595Z,7.94
2019-04-14T03:29:26.497Z,7.94
2019-04-14T03:30:56.703Z,7.94
2019-04-14T03:31:49.258Z,7.94
2019-04-14T03:32:10.149Z,7.94
2019-04-14T03:33:16.951Z,7.94
2019-04-14T03:33:16.952Z,7.94
2019-04-14T03:34:38.833Z,8
2019-04-14T03:36:03.529Z,7.94
2019-04-14T03:36:42.969Z,7.94
2019-04-14T03:37:28.748Z,7.94
2019-04-14T03:37:58.845Z,7.94
2019-04-14T03:38:33.890Z,7.94
2019-04-14T03:39:56.940Z,7.94
2019-04-14T03:40:33.483Z,7.94
2019-04-14T03:40:58.233Z,7.94
2019-04-14T03:41:28.874Z,7.94
2019-04-14T03:42:00.164Z,7.94
2019-04-14T03:42:35.020Z,7.94
2019-04-14T03:43:30.111Z,7.94
2019-04-14T03:43:54.103Z,7.94
2019-04-14T03:44:34.500Z,7.94
2019-04-14T03:44:55.980Z,7.94
2019-04-14T03:45:58.729Z,7.94
2019-04-14T03:46:33.097Z,7.94
2019-04-14T03:47:05.061Z,7.94
2019-04-14T03:48:16.666Z,7.94
2019-04-14T03:49:05.762Z,7.94
2019-04-14T03:49:31.008Z,7.94
2019-04-14T03:49:59.533Z,8
2019-04-14T03:50:27.990Z,7.94
2019-04-14T03:51:00.156Z,7.94
2019-04-14T03:51:36.365Z,7.94
2019-04-14T03:51:57.063Z,7.94
2019-04-14T03:52:31.108Z,7.94
2019-04-14T03:53:05.500Z,7.94
2019-04-14T03:53:51.773Z,7.81
2019-04-14T03:54:25.610Z,7.81
2019-04-14T03:54:49.917Z,7.81
2019-04-14T03:55:20.075Z,7.81
2019-04-14T03:55:42.967Z,7.87
2019-04-14T03:56:09.074Z,7.87
2019-04-14T03:56:35.626Z,7.87
2019-04-14T03:57:06.168Z,7.87
2019-04-14T03:57:34.866Z,7.87
2019-04-14T03:58:11.249Z,7.87
2019-04-14T03:58:35.707Z,7.87
2019-04-14T03:59:06.349Z,7.87
2019-04-14T03:59:34.900Z,7.87
2019-04-14T04:00:05.539Z,7.81
2019-04-14T04:00:35.751Z,7.81
2019-04-14T04:01:06.138Z,7.81
2019-04-14T04:01:35.013Z,7.81
2019-04-14T04:02:05.437Z,7.81
2019-04-14T04:02:35.905Z,7.81
2019-04-14T04:03:06.236Z,7.81
2019-04-14T04:03:34.874Z,7.81
2019-04-14T04:04:07.391Z,7.81
2019-04-14T04:04:35.841Z,7.81
2019-04-14T04:05:06.425Z,7.75
2019-04-14T04:05:35.064Z,7.75
2019-04-14T04:06:05.458Z,7.75
2019-04-14T04:06:35.629Z,7.75
2019-04-14T04:07:06.172Z,7.75
2019-04-14T04:07:36.565Z,7.75
2019-04-14T04:08:05.412Z,7.75
2019-04-14T04:08:35.476Z,7.69
2019-04-14T04:09:06.247Z,7.75
2019-04-14T04:09:36.414Z,7.81
2019-04-14T04:10:07.208Z,7.81
2019-04-14T04:10:35.682Z,7.81
2019-04-14T04:11:06.193Z,7.87
2019-04-14T04:11:41.185Z,7.87
2019-04-14T04:12:05.506Z,7.87
2019-04-14T04:12:35.719Z,7.87
2019-04-14T04:13:06.252Z,7.87
2019-04-14T04:13:36.592Z,7.94
2019-04-14T04:14:05.837Z,7.94
2019-04-14T04:14:35.672Z,7.94
2019-04-14T04:15:06.223Z,8
2019-04-14T04:15:36.458Z,8
2019-04-14T04:16:05.660Z,8
2019-04-14T04:16:35.543Z,8
2019-04-14T04:17:07.855Z,7.94
2019-04-14T04:17:36.270Z,8
2019-04-14T04:18:06.927Z,8
2019-04-14T04:18:47.193Z,8
2019-04-14T04:19:09.091Z,8
2019-04-14T04:19:35.906Z,8
2019-04-14T04:20:06.709Z,8
2019-04-14T04:20:35.424Z,8
2019-04-14T04:21:07.354Z,8
2019-04-14T04:21:35.536Z,8
2019-04-14T04:22:08.520Z,8.06
2019-04-14T04:22:35.327Z,8
2019-04-14T04:23:05.927Z,8
2019-04-14T04:23:35.689Z,8.06
2019-04-14T04:24:06.420Z,8.06
2019-04-14T04:24:38.787Z,8.06
2019-04-14T04:25:09.405Z,8.06
2019-04-14T04:25:35.396Z,8.06
2019-04-14T04:26:06.187Z,8.06
2019-04-14T04:26:36.560Z,8.06
2019-04-14T04:27:06.824Z,8.06
2019-04-14T04:27:35.764Z,8.06
2019-04-14T04:28:06.096Z,8
2019-04-14T04:28:38.509Z,8
2019-04-14T04:29:06.975Z,8
2019-04-14T04:29:35.721Z,8.06
2019-04-14T04:30:06.663Z,8
2019-04-14T04:30:36.226Z,8
2019-04-14T04:31:06.701Z,8
2019-04-14T04:31:35.666Z,8
2019-04-14T04:32:06.008Z,8
2019-04-14T04:32:36.220Z,8
2019-04-14T04:33:06.569Z,8
2019-04-14T04:33:39.344Z,8
2019-04-14T04:34:05.787Z,8
2019-04-14T04:34:36.041Z,8
2019-04-14T04:35:06.443Z,8
2019-04-14T04:35:35.701Z,7.94
2019-04-14T04:36:05.842Z,7.94
2019-04-14T04:36:35.897Z,8
2019-04-14T04:37:06.113Z,8
2019-04-14T04:37:36.803Z,7.94
2019-04-14T04:38:07.390Z,7.94
2019-04-14T04:38:35.825Z,7.94
2019-04-14T04:39:06.119Z,7.94
2019-04-14T04:39:36.486Z,7.94
2019-04-14T04:40:07.208Z,8
2019-04-14T04:40:36.003Z,7.94
2019-04-14T04:41:06.067Z,7.94
2019-04-14T04:41:36.393Z,7.94
2019-04-14T04:42:09.469Z,8
2019-04-14T04:42:35.836Z,8
2019-04-14T04:43:05.962Z,8
2019-04-14T04:43:36.470Z,8
2019-04-14T04:44:07.193Z,8
2019-04-14T04:44:37.651Z,8
2019-04-14T04:45:06.685Z,8
2019-04-14T04:45:39.462Z,8
2019-04-14T04:46:06.894Z,8
2019-04-14T04:46:37.254Z,8
2019-04-14T04:47:07.639Z,8
2019-04-14T04:47:38.100Z,8
2019-04-14T04:48:07.206Z,8
2019-04-14T04:48:37.042Z,8
2019-04-14T04:49:11.406Z,8
2019-04-14T04:49:36.281Z,8
2019-04-14T04:50:07.048Z,8
2019-04-14T04:50:36.822Z,8
2019-04-14T04:51:07.099Z,8
2019-04-14T04:51:37.837Z,8
2019-04-14T04:52:06.363Z,8
2019-04-14T04:52:36.476Z,8
2019-04-14T04:53:06.919Z,8
2019-04-14T04:53:37.369Z,8.06
2019-04-14T04:54:06.250Z,8
2019-04-14T04:54:36.440Z,8.06
2019-04-14T04:55:11.209Z,8.06
2019-04-14T04:55:40.220Z,8.06
2019-04-14T04:56:06.515Z,8.06
2019-04-14T04:56:36.264Z,8.06
2019-04-14T04:57:06.757Z,8.06
2019-04-14T04:57:37.247Z,8.06
2019-04-14T04:58:07.686Z,8.06
2019-04-14T04:58:37.131Z,8.06
2019-04-14T04:59:09.976Z,8.06
2019-04-14T04:59:36.683Z,8.06
2019-04-14T05:00:07.068Z,8.06
2019-04-14T05:00:37.324Z,8.06
2019-04-14T05:01:07.705Z,8.06
2019-04-14T05:01:36.591Z,8.06
2019-04-14T05:02:07.041Z,8.06
2019-04-14T05:02:37.438Z,8.06
2019-04-14T05:03:07.616Z,8.06
2019-04-14T05:03:36.539Z,8.06
2019-04-14T05:04:06.852Z,8.06
2019-04-14T05:04:37.279Z,8.06
2019-04-14T05:05:09.853Z,8.06
2019-04-14T05:05:36.486Z,8.06
2019-04-14T05:06:06.815Z,8.06
2019-04-14T05:06:39.419Z,8.06
2019-04-14T05:07:07.771Z,8.06
2019-04-14T05:07:36.455Z,8.06
2019-04-14T05:08:06.856Z,8.06
2019-04-14T05:08:39.041Z,8.06
2019-04-14T05:09:07.855Z,8.06
2019-04-14T05:09:36.813Z,8.06
2019-04-14T05:10:08.739Z,8.06
2019-04-14T05:10:37.131Z,8.06
2019-04-14T05:11:07.551Z,8.06
2019-04-14T05:11:36.836Z,8.06
2019-04-14T05:12:07.164Z,8.06
2019-04-14T05:12:37.017Z,8.06
2019-04-14T05:13:07.325Z,8.06
2019-04-14T05:13:38.088Z,8.06
2019-04-14T05:14:06.861Z,8.06
2019-04-14T05:14:36.930Z,8.13
2019-04-14T05:15:07.352Z,8.06
2019-04-14T05:15:37.913Z,8.13
2019-04-14T05:16:06.996Z,8.13
2019-04-14T05:16:36.937Z,8.13
2019-04-14T05:17:07.902Z,8.13
2019-04-14T05:17:38.557Z,8.13
2019-04-14T05:18:09.537Z,8.13
2019-04-14T05:18:37.831Z,8.13
2019-04-14T05:19:17.008Z,8.13
2019-04-14T05:19:39.194Z,8.13
2019-04-14T05:20:07.406Z,8.13
2019-04-14T05:20:37.767Z,8.13
2019-04-14T05:21:08.082Z,8.13
2019-04-14T05:21:36.980Z,8.19
2019-04-14T05:22:09.319Z,8.19
2019-04-14T05:22:37.543Z,8.19
2019-04-14T05:23:08.047Z,8.19
2019-04-14T05:23:37.124Z,8.19
2019-04-14T05:24:07.110Z,8.19
2019-04-14T05:24:37.485Z,8.19
2019-04-14T05:25:07.948Z,8.19
2019-04-14T05:25:37.232Z,8.19
2019-04-14T05:26:08.906Z,8.19
2019-04-14T05:26:37.374Z,8.19
2019-04-14T05:27:07.840Z,8.19
2019-04-14T05:27:37.068Z,8.19
2019-04-14T05:28:08.994Z,8.19
2019-04-14T05:28:37.442Z,8.19
2019-04-14T05:29:07.767Z,8.19
2019-04-14T05:29:37.180Z,8.19
2019-04-14T05:30:08.953Z,8.19
2019-04-14T05:30:37.226Z,8.19
2019-04-14T05:31:07.609Z,8.19
2019-04-14T05:31:38.259Z,8.19
2019-04-14T05:32:07.197Z,8.25
2019-04-14T05:32:37.331Z,8.25
2019-04-14T05:33:07.516Z,8.25
2019-04-14T05:33:38.272Z,8.19
2019-04-14T05:34:08.572Z,8.19
2019-04-14T05:34:37.247Z,8.19
2019-04-14T05:35:07.528Z,8.19
2019-04-14T05:35:38.644Z,8.19
2019-04-14T05:36:08.521Z,8.19
2019-04-14T05:36:37.300Z,8.19
2019-04-14T05:37:07.635Z,8.19
2019-04-14T05:37:37.859Z,8.25
2019-04-14T05:38:08.414Z,8.19
2019-04-14T05:38:38.513Z,8.19
2019-04-14T05:39:09.742Z,8.25
2019-04-14T05:39:37.655Z,8.19
2019-04-14T05:40:08.161Z,8.25
2019-04-14T05:40:38.554Z,8.19
2019-04-14T05:41:11.401Z,8.19
2019-04-14T05:41:37.628Z,8.25
2019-04-14T05:42:12.991Z,8.25
2019-04-14T05:42:38.441Z,8.25
2019-04-14T05:43:08.847Z,8.25
2019-04-14T05:43:45.358Z,8.25
2019-04-14T05:44:07.947Z,8.19
2019-04-14T05:44:38.226Z,8.25
2019-04-14T05:45:08.846Z,8.25
2019-04-14T05:45:37.386Z,8.25
2019-04-14T05:46:07.810Z,8.25
2019-04-14T05:46:38.133Z,8.25
2019-04-14T05:47:08.681Z,8.25
2019-04-14T05:47:37.566Z,8.19
2019-04-14T05:48:07.751Z,8.25
2019-04-14T05:48:40.858Z,8.25
2019-04-14T05:49:09.034Z,8.25
2019-04-14T05:49:42.252Z,8.31
2019-04-14T05:50:09.391Z,8.31
2019-04-14T05:50:37.984Z,8.38
2019-04-14T05:51:08.488Z,8.38
2019-04-14T05:51:41.552Z,8.44
2019-04-14T05:52:07.918Z,8.44
2019-04-14T05:52:40.348Z,8.44
2019-04-14T05:53:08.631Z,8.5
2019-04-14T05:53:37.836Z,8.5
2019-04-14T05:54:07.903Z,8.5
2019-04-14T05:54:38.242Z,8.56
2019-04-14T05:55:08.763Z,8.56
2019-04-14T05:55:37.843Z,8.56
2019-04-14T05:56:12.192Z,8.63
2019-04-14T05:56:40.985Z,8.63
2019-04-14T05:57:08.784Z,8.63
2019-04-14T05:57:38.009Z,8.63
2019-04-14T05:58:08.236Z,8.63
2019-04-14T05:58:38.291Z,8.69
2019-04-14T05:59:08.834Z,8.69
2019-04-14T05:59:38.046Z,8.69
2019-04-14T06:00:12.453Z,8.69
2019-04-14T06:00:38.546Z,8.69
2019-04-14T06:01:08.967Z,8.75
2019-04-14T06:01:39.204Z,8.75
2019-04-14T06:02:09.369Z,8.75
2019-04-14T06:02:38.290Z,8.75
2019-04-14T06:03:10.292Z,8.75
2019-04-14T06:03:38.614Z,8.75
2019-04-14T06:04:09.238Z,8.75
2019-04-14T06:04:37.946Z,8.75
2019-04-14T06:05:09.684Z,8.75
2019-04-14T06:05:38.311Z,8.81
2019-04-14T06:06:09.879Z,8.81
2019-04-14T06:06:38.309Z,8.81
2019-04-14T06:07:08.262Z,8.81
2019-04-14T06:07:38.086Z,8.81
2019-04-14T06:08:08.189Z,8.81
2019-04-14T06:08:38.045Z,8.81
2019-04-14T06:09:08.473Z,8.81
2019-04-14T06:09:39.289Z,8.81
2019-04-14T06:10:08.896Z,8.81
2019-04-14T06:10:38.084Z,8.81
2019-04-14T06:11:08.287Z,8.81
2019-04-14T06:11:38.171Z,8.81
2019-04-14T06:12:08.658Z,8.81
2019-04-14T06:12:38.223Z,8.81
2019-04-14T06:13:08.485Z,8.81
2019-04-14T06:13:41.179Z,8.81
2019-04-14T06:14:08.366Z,8.88
2019-04-14T06:14:38.174Z,8.88
2019-04-14T06:15:08.632Z,8.81
2019-04-14T06:15:38.256Z,8.81
2019-04-14T06:16:08.895Z,8.81
2019-04-14T06:16:38.434Z,8.88
2019-04-14T06:17:11.448Z,8.81
2019-04-14T06:17:38.402Z,8.81
2019-04-14T06:18:08.685Z,8.88
2019-04-14T06:18:38.461Z,8.88
2019-04-14T06:19:09.209Z,8.88
2019-04-14T06:19:40.510Z,8.88
2019-04-14T06:20:08.909Z,8.88
2019-04-14T06:20:38.472Z,8.88
2019-04-14T06:21:08.537Z,8.81
2019-04-14T06:21:38.544Z,8.88
2019-04-14T06:22:08.903Z,8.88
2019-04-14T06:22:38.486Z,8.88
2019-04-14T06:23:09.534Z,8.88
2019-04-14T06:23:38.638Z,8.88
2019-04-14T06:24:08.489Z,8.88
2019-04-14T06:24:38.960Z,8.88
2019-04-14T06:25:09.213Z,8.88
2019-04-14T06:25:38.448Z,8.88
2019-04-14T06:26:09.066Z,8.81
2019-04-14T06:26:39.933Z,8.88
2019-04-14T06:27:10.999Z,8.88
2019-04-14T06:27:38.670Z,8.81
2019-04-14T06:28:08.707Z,8.81
2019-04-14T06:28:38.605Z,8.81
2019-04-14T06:29:08.739Z,8.81
2019-04-14T06:29:38.765Z,8.81
2019-04-14T06:30:09.619Z,8.81
2019-04-14T06:30:40.688Z,8.81
2019-04-14T06:31:09.058Z,8.75
2019-04-14T06:31:38.689Z,8.75
2019-04-14T06:32:09.178Z,8.75
2019-04-14T06:32:38.782Z,8.75
2019-04-14T06:33:09.076Z,8.69
2019-04-14T06:33:38.876Z,8.69
2019-04-14T06:34:11.951Z,8.69
2019-04-14T06:34:40.792Z,8.69
2019-04-14T06:35:09.531Z,8.63
2019-04-14T06:35:39.077Z,8.63
2019-04-14T06:36:09.372Z,8.63
2019-04-14T06:36:39.164Z,8.63
2019-04-14T06:37:09.865Z,8.63
2019-04-14T06:37:39.071Z,8.63
2019-04-14T06:38:12.759Z,8.56
2019-04-14T06:38:39.078Z,8.56
2019-04-14T06:39:09.431Z,8.56
2019-04-14T06:39:38.997Z,8.56
2019-04-14T06:40:10.220Z,8.56
2019-04-14T06:40:39.136Z,8.56
2019-04-14T06:41:09.144Z,8.56
2019-04-14T06:41:39.102Z,8.56
2019-04-14T06:42:09.318Z,8.56
2019-04-14T06:42:39.058Z,8.56
2019-04-14T06:43:11.605Z,8.56
2019-04-14T06:43:48.239Z,8.56
2019-04-14T06:44:10.367Z,8.56
2019-04-14T06:44:38.987Z,8.56
2019-04-14T06:45:09.727Z,8.56
2019-04-14T06:45:39.008Z,8.56
2019-04-14T06:46:09.630Z,8.56
2019-04-14T06:46:39.211Z,8.56
2019-04-14T06:47:12.419Z,8.56
2019-04-14T06:47:40.159Z,8.56
2019-04-14T06:48:09.142Z,8.56
2019-04-14T06:48:39.252Z,8.56
2019-04-14T06:49:09.334Z,8.56
2019-04-14T06:49:48.351Z,8.63
2019-04-14T06:50:10.633Z,8.63
2019-04-14T06:50:39.282Z,8.63
2019-04-14T06:51:09.749Z,8.69
2019-04-14T06:51:41.020Z,8.63
2019-04-14T06:52:09.859Z,8.63
2019-04-14T06:52:39.391Z,8.69
2019-04-14T06:53:09.588Z,8.69
2019-04-14T06:53:39.309Z,8.69
2019-04-14T06:54:09.718Z,8.69
2019-04-14T06:54:39.332Z,8.69
2019-04-14T06:55:13.006Z,8.69
2019-04-14T06:55:39.411Z,8.69
2019-04-14T06:56:09.511Z,8.69
2019-04-14T06:56:39.297Z,8.69
2019-04-14T06:57:09.904Z,8.69
2019-04-14T06:57:40.048Z,8.69